sensor_id;sensor_type;location;lat;lon;timestamp;pressure;altitude;pressure_sealevel;temperature;humidity
59545;BME280;45368;55.002;-1.592;2023-07-09T00:02:14;100846.16;;;20.00;65.06
59545;BME280;45368;55.002;-1.592;2023-07-09T00:04:41;100844.26;;;19.89;65.01
59545;BME280;45368;55.002;-1.592;2023-07-09T00:07:21;100842.34;;;20.11;65.36
59545;BME280;45368;55.002;-1.592;2023-07-09T00:09:50;100871.76;;;18.33;66.90
59545;BME280;45368;55.002;-1.592;2023-07-09T00:12:18;100876.20;;;18.02;67.21
59545;BME280;45368;55.002;-1.592;2023-07-09T00:14:46;100876.49;;;18.21;65.96
59545;BME280;45368;55.002;-1.592;2023-07-09T00:17:19;100882.59;;;18.62;65.53
59545;BME280;45368;55.002;-1.592;2023-07-09T00:19:48;100883.51;;;19.02;64.35
59545;BME280;45368;55.002;-1.592;2023-07-09T00:22:17;100877.99;;;19.50;63.60
59545;BME280;45368;55.002;-1.592;2023-07-09T00:24:48;100883.43;;;20.07;62.65
59545;BME280;45368;55.002;-1.592;2023-07-09T00:27:18;100890.29;;;19.88;62.23
59545;BME280;45368;55.002;-1.592;2023-07-09T00:29:46;100898.82;;;20.12;62.52
59545;BME280;45368;55.002;-1.592;2023-07-09T00:32:15;100894.82;;;19.53;62.46
59545;BME280;45368;55.002;-1.592;2023-07-09T00:34:43;100899.99;;;19.23;63.94
59545;BME280;45368;55.002;-1.592;2023-07-09T00:37:11;100892.96;;;19.26;63.41
59545;BME280;45368;55.002;-1.592;2023-07-09T00:39:38;100887.82;;;19.60;62.84
59545;BME280;45368;55.002;-1.592;2023-07-09T00:42:11;100883.52;;;19.05;63.46
59545;BME280;45368;55.002;-1.592;2023-07-09T00:44:39;100871.93;;;19.61;63.01
59545;BME280;45368;55.002;-1.592;2023-07-09T00:47:23;100860.07;;;19.36;63.30
59545;BME280;45368;55.002;-1.592;2023-07-09T00:50:04;100844.01;;;19.55;63.04
59545;BME280;45368;55.002;-1.592;2023-07-09T00:52:37;100833.29;;;20.04;62.39
59545;BME280;45368;55.002;-1.592;2023-07-09T00:55:10;100831.88;;;19.59;62.48
59545;BME280;45368;55.002;-1.592;2023-07-09T00:57:39;100817.85;;;19.55;61.96
59545;BME280;45368;55.002;-1.592;2023-07-09T01:00:11;100812.09;;;19.93;61.31
59545;BME280;45368;55.002;-1.592;2023-07-09T01:02:40;100813.61;;;19.29;62.35
59545;BME280;45368;55.002;-1.592;2023-07-09T01:05:10;100812.70;;;18.93;62.34
59545;BME280;45368;55.002;-1.592;2023-07-09T01:07:39;100814.10;;;19.39;62.60
59545;BME280;45368;55.002;-1.592;2023-07-09T01:10:07;100823.27;;;18.69;63.85
59545;BME280;45368;55.002;-1.592;2023-07-09T01:12:35;100831.10;;;18.88;63.54
59545;BME280;45368;55.002;-1.592;2023-07-09T01:15:02;100825.14;;;19.47;61.94
59545;BME280;45368;55.002;-1.592;2023-07-09T01:17:35;100810.13;;;20.21;60.71
59545;BME280;45368;55.002;-1.592;2023-07-09T01:20:03;100806.56;;;19.66;60.61
59545;BME280;45368;55.002;-1.592;2023-07-09T01:22:30;100812.60;;;19.28;61.27
59545;BME280;45368;55.002;-1.592;2023-07-09T01:25:00;100818.05;;;18.76;62.95
59545;BME280;45368;55.002;-1.592;2023-07-09T01:27:31;100819.46;;;18.53;63.29
59545;BME280;45368;55.002;-1.592;2023-07-09T01:30:00;100811.95;;;19.00;62.21
59545;BME280;45368;55.002;-1.592;2023-07-09T01:32:28;100808.39;;;19.35;61.15
59545;BME280;45368;55.002;-1.592;2023-07-09T01:34:58;100810.91;;;19.19;62.32
59545;BME280;45368;55.002;-1.592;2023-07-09T01:37:27;100802.76;;;19.63;61.02
59545;BME280;45368;55.002;-1.592;2023-07-09T01:39:54;100799.69;;;19.07;61.71
59545;BME280;45368;55.002;-1.592;2023-07-09T01:42:24;100789.88;;;19.54;61.24
59545;BME280;45368;55.002;-1.592;2023-07-09T01:44:53;100782.13;;;20.27;59.69
59545;BME280;45368;55.002;-1.592;2023-07-09T01:47:22;100778.94;;;20.41;59.56
59545;BME280;45368;55.002;-1.592;2023-07-09T01:49:49;100786.71;;;19.82;59.72
59545;BME280;45368;55.002;-1.592;2023-07-09T01:52:18;100781.61;;;19.79;59.94
59545;BME280;45368;55.002;-1.592;2023-07-09T01:54:46;100772.83;;;20.08;59.66
59545;BME280;45368;55.002;-1.592;2023-07-09T01:57:20;100770.05;;;20.60;59.22
59545;BME280;45368;55.002;-1.592;2023-07-09T01:59:48;100771.01;;;20.55;59.11
59545;BME280;45368;55.002;-1.592;2023-07-09T02:02:16;100773.86;;;20.24;59.74
59545;BME280;45368;55.002;-1.592;2023-07-09T02:04:44;100775.80;;;20.10;59.86
59545;BME280;45368;55.002;-1.592;2023-07-09T02:07:11;100774.23;;;20.34;59.34
59545;BME280;45368;55.002;-1.592;2023-07-09T02:09:38;100775.59;;;20.48;59.07
59545;BME280;45368;55.002;-1.592;2023-07-09T02:12:06;100781.00;;;20.28;59.32
59545;BME280;45368;55.002;-1.592;2023-07-09T02:14:33;100790.12;;;20.52;59.00
59545;BME280;45368;55.002;-1.592;2023-07-09T02:17:01;100794.27;;;19.59;59.64
59545;BME280;45368;55.002;-1.592;2023-07-09T02:19:29;100794.78;;;19.82;60.19
59545;BME280;45368;55.002;-1.592;2023-07-09T02:21:56;100785.37;;;20.67;59.09
59545;BME280;45368;55.002;-1.592;2023-07-09T02:24:24;100782.05;;;20.68;58.90
59545;BME280;45368;55.002;-1.592;2023-07-09T02:26:51;100784.51;;;20.06;58.98
59545;BME280;45368;55.002;-1.592;2023-07-09T02:29:18;100792.60;;;19.02;61.42
59545;BME280;45368;55.002;-1.592;2023-07-09T02:31:48;100787.07;;;18.74;62.12
59545;BME280;45368;55.002;-1.592;2023-07-09T02:34:15;100789.46;;;19.03;61.16
59545;BME280;45368;55.002;-1.592;2023-07-09T02:36:43;100791.86;;;17.93;63.91
59545;BME280;45368;55.002;-1.592;2023-07-09T02:39:11;100791.39;;;19.34;61.55
59545;BME280;45368;55.002;-1.592;2023-07-09T02:41:39;100791.83;;;18.82;62.05
59545;BME280;45368;55.002;-1.592;2023-07-09T02:44:08;100786.87;;;18.63;62.51
59545;BME280;45368;55.002;-1.592;2023-07-09T02:46:35;100790.14;;;18.47;62.69
59545;BME280;45368;55.002;-1.592;2023-07-09T02:49:04;100797.85;;;18.04;64.13
59545;BME280;45368;55.002;-1.592;2023-07-09T02:51:32;100795.05;;;18.04;63.21
59545;BME280;45368;55.002;-1.592;2023-07-09T02:54:01;100786.09;;;18.46;62.86
59545;BME280;45368;55.002;-1.592;2023-07-09T02:56:30;100778.96;;;18.20;62.54
59545;BME280;45368;55.002;-1.592;2023-07-09T02:58:57;100780.94;;;18.67;62.34
59545;BME280;45368;55.002;-1.592;2023-07-09T03:01:24;100776.12;;;19.40;60.14
59545;BME280;45368;55.002;-1.592;2023-07-09T03:03:52;100775.37;;;19.01;61.36
59545;BME280;45368;55.002;-1.592;2023-07-09T03:06:20;100776.08;;;18.75;62.02
59545;BME280;45368;55.002;-1.592;2023-07-09T03:08:48;100776.01;;;18.13;63.22
59545;BME280;45368;55.002;-1.592;2023-07-09T03:11:16;100769.08;;;18.41;62.82
59545;BME280;45368;55.002;-1.592;2023-07-09T03:13:43;100765.67;;;18.67;62.64
59545;BME280;45368;55.002;-1.592;2023-07-09T03:16:12;100761.62;;;18.62;62.06
59545;BME280;45368;55.002;-1.592;2023-07-09T03:18:39;100758.11;;;19.33;60.45
59545;BME280;45368;55.002;-1.592;2023-07-09T03:21:07;100767.96;;;18.41;62.25
59545;BME280;45368;55.002;-1.592;2023-07-09T03:23:33;100769.08;;;18.95;61.68
59545;BME280;45368;55.002;-1.592;2023-07-09T03:26:00;100767.08;;;18.60;62.45
59545;BME280;45368;55.002;-1.592;2023-07-09T03:28:31;100759.43;;;19.74;59.54
59545;BME280;45368;55.002;-1.592;2023-07-09T03:30:59;100760.80;;;19.40;60.11
59545;BME280;45368;55.002;-1.592;2023-07-09T03:33:26;100768.41;;;18.73;61.31
59545;BME280;45368;55.002;-1.592;2023-07-09T03:35:54;100760.14;;;19.57;59.75
59545;BME280;45368;55.002;-1.592;2023-07-09T03:38:21;100759.39;;;19.12;60.50
59545;BME280;45368;55.002;-1.592;2023-07-09T03:40:51;100757.68;;;19.29;59.51
59545;BME280;45368;55.002;-1.592;2023-07-09T03:43:18;100766.50;;;18.49;62.16
59545;BME280;45368;55.002;-1.592;2023-07-09T03:45:46;100770.03;;;19.36;60.85
59545;BME280;45368;55.002;-1.592;2023-07-09T03:48:20;100774.21;;;18.61;61.70
59545;BME280;45368;55.002;-1.592;2023-07-09T03:50:48;100777.08;;;18.31;62.70
59545;BME280;45368;55.002;-1.592;2023-07-09T03:53:16;100785.61;;;19.03;61.40
59545;BME280;45368;55.002;-1.592;2023-07-09T03:55:50;100797.28;;;18.30;62.96
59545;BME280;45368;55.002;-1.592;2023-07-09T03:58:18;100807.30;;;19.34;60.64
59545;BME280;45368;55.002;-1.592;2023-07-09T04:00:45;100814.31;;;18.52;62.59
59545;BME280;45368;55.002;-1.592;2023-07-09T04:03:13;100813.86;;;18.76;62.68
59545;BME280;45368;55.002;-1.592;2023-07-09T04:05:40;100813.38;;;18.56;63.00
59545;BME280;45368;55.002;-1.592;2023-07-09T04:08:08;100810.81;;;18.94;62.40
59545;BME280;45368;55.002;-1.592;2023-07-09T04:10:35;100809.95;;;18.82;62.64
59545;BME280;45368;55.002;-1.592;2023-07-09T04:13:02;100807.08;;;18.44;64.12
59545;BME280;45368;55.002;-1.592;2023-07-09T04:15:29;100799.54;;;18.21;64.10
59545;BME280;45368;55.002;-1.592;2023-07-09T04:17:57;100797.51;;;18.40;64.08
59545;BME280;45368;55.002;-1.592;2023-07-09T04:20:24;100803.44;;;17.87;65.85
59545;BME280;45368;55.002;-1.592;2023-07-09T04:22:51;100816.78;;;17.39;66.90
59545;BME280;45368;55.002;-1.592;2023-07-09T04:25:19;100811.38;;;18.22;65.27
59545;BME280;45368;55.002;-1.592;2023-07-09T04:27:51;100807.54;;;18.32;64.89
59545;BME280;45368;55.002;-1.592;2023-07-09T04:30:18;100806.55;;;17.15;67.17
59545;BME280;45368;55.002;-1.592;2023-07-09T04:32:46;100802.01;;;17.72;66.92
59545;BME280;45368;55.002;-1.592;2023-07-09T04:35:14;100807.71;;;16.86;68.87
59545;BME280;45368;55.002;-1.592;2023-07-09T04:37:42;100807.88;;;17.43;68.33
59545;BME280;45368;55.002;-1.592;2023-07-09T04:40:11;100813.06;;;17.44;67.63
59545;BME280;45368;55.002;-1.592;2023-07-09T04:42:39;100807.67;;;18.02;66.32
59545;BME280;45368;55.002;-1.592;2023-07-09T04:45:09;100807.56;;;17.82;66.51
59545;BME280;45368;55.002;-1.592;2023-07-09T04:47:38;100816.43;;;18.09;66.15
59545;BME280;45368;55.002;-1.592;2023-07-09T04:50:07;100811.16;;;17.37;68.40
59545;BME280;45368;55.002;-1.592;2023-07-09T04:52:35;100803.16;;;18.11;65.56
59545;BME280;45368;55.002;-1.592;2023-07-09T04:55:03;100796.11;;;18.64;63.64
59545;BME280;45368;55.002;-1.592;2023-07-09T04:57:30;100795.61;;;18.50;64.04
59545;BME280;45368;55.002;-1.592;2023-07-09T04:59:58;100801.93;;;18.12;64.63
59545;BME280;45368;55.002;-1.592;2023-07-09T05:02:25;100798.81;;;18.56;64.00
59545;BME280;45368;55.002;-1.592;2023-07-09T05:04:52;100791.43;;;19.13;61.91
59545;BME280;45368;55.002;-1.592;2023-07-09T05:07:20;100790.58;;;19.75;60.65
59545;BME280;45368;55.002;-1.592;2023-07-09T05:09:48;100790.16;;;19.44;61.49
59545;BME280;45368;55.002;-1.592;2023-07-09T05:12:16;100786.24;;;19.12;60.31
59545;BME280;45368;55.002;-1.592;2023-07-09T05:14:43;100788.03;;;20.18;58.92
59545;BME280;45368;55.002;-1.592;2023-07-09T05:17:11;100795.19;;;19.85;59.11
59545;BME280;45368;55.002;-1.592;2023-07-09T05:19:38;100803.83;;;19.59;59.95
59545;BME280;45368;55.002;-1.592;2023-07-09T05:22:05;100818.71;;;20.00;59.72
59545;BME280;45368;55.002;-1.592;2023-07-09T05:24:32;100826.18;;;18.98;61.08
59545;BME280;45368;55.002;-1.592;2023-07-09T05:27:00;100825.69;;;17.75;61.69
59545;BME280;45368;55.002;-1.592;2023-07-09T05:29:27;100821.93;;;17.89;61.08
59545;BME280;45368;55.002;-1.592;2023-07-09T05:31:55;100827.24;;;17.50;62.28
59545;BME280;45368;55.002;-1.592;2023-07-09T05:34:23;100834.02;;;17.61;61.55
59545;BME280;45368;55.002;-1.592;2023-07-09T05:36:50;100833.53;;;17.22;62.15
59545;BME280;45368;55.002;-1.592;2023-07-09T05:39:23;100837.63;;;16.75;62.53
59545;BME280;45368;55.002;-1.592;2023-07-09T05:41:50;100847.56;;;16.91;61.77
59545;BME280;45368;55.002;-1.592;2023-07-09T05:44:18;100851.63;;;15.93;63.78
59545;BME280;45368;55.002;-1.592;2023-07-09T05:46:45;100842.77;;;16.26;62.72
59545;BME280;45368;55.002;-1.592;2023-07-09T05:49:13;100851.23;;;15.57;63.53
59545;BME280;45368;55.002;-1.592;2023-07-09T05:51:41;100849.85;;;16.05;61.52
59545;BME280;45368;55.002;-1.592;2023-07-09T05:54:09;100843.92;;;15.96;62.65
59545;BME280;45368;55.002;-1.592;2023-07-09T05:56:36;100827.94;;;16.36;61.69
59545;BME280;45368;55.002;-1.592;2023-07-09T05:59:03;100829.88;;;16.19;61.64
59545;BME280;45368;55.002;-1.592;2023-07-09T06:01:30;100827.86;;;16.66;60.55
59545;BME280;45368;55.002;-1.592;2023-07-09T06:03:58;100818.64;;;16.40;60.15
59545;BME280;45368;55.002;-1.592;2023-07-09T06:06:26;100832.31;;;16.12;60.49
59545;BME280;45368;55.002;-1.592;2023-07-09T06:08:53;100837.42;;;16.63;60.28
59545;BME280;45368;55.002;-1.592;2023-07-09T06:11:21;100840.67;;;15.97;61.65
59545;BME280;45368;55.002;-1.592;2023-07-09T06:13:48;100840.37;;;16.45;59.86
59545;BME280;45368;55.002;-1.592;2023-07-09T06:16:18;100842.32;;;16.22;60.30
59545;BME280;45368;55.002;-1.592;2023-07-09T06:18:45;100848.76;;;16.98;59.73
59545;BME280;45368;55.002;-1.592;2023-07-09T06:21:12;100863.61;;;16.96;58.87
59545;BME280;45368;55.002;-1.592;2023-07-09T06:23:39;100860.43;;;16.94;58.08
59545;BME280;45368;55.002;-1.592;2023-07-09T06:26:07;100855.84;;;16.91;58.46
59545;BME280;45368;55.002;-1.592;2023-07-09T06:28:35;100852.32;;;17.46;57.39
59545;BME280;45368;55.002;-1.592;2023-07-09T06:31:02;100865.94;;;16.35;59.82
59545;BME280;45368;55.002;-1.592;2023-07-09T06:33:30;100865.69;;;17.51;57.25
59545;BME280;45368;55.002;-1.592;2023-07-09T06:35:59;100870.32;;;17.45;57.91
59545;BME280;45368;55.002;-1.592;2023-07-09T06:38:28;100877.28;;;17.60;57.60
59545;BME280;45368;55.002;-1.592;2023-07-09T06:40:56;100884.15;;;17.02;58.34
59545;BME280;45368;55.002;-1.592;2023-07-09T06:43:23;100882.34;;;17.82;57.45
59545;BME280;45368;55.002;-1.592;2023-07-09T06:45:54;100873.69;;;17.48;56.62
59545;BME280;45368;55.002;-1.592;2023-07-09T06:48:23;100875.97;;;17.32;55.87
59545;BME280;45368;55.002;-1.592;2023-07-09T06:50:51;100884.72;;;17.95;55.62
59545;BME280;45368;55.002;-1.592;2023-07-09T06:53:20;100894.27;;;16.08;57.41
59545;BME280;45368;55.002;-1.592;2023-07-09T06:55:47;100892.13;;;16.32;57.97
59545;BME280;45368;55.002;-1.592;2023-07-09T06:58:15;100887.76;;;16.94;57.48
59545;BME280;45368;55.002;-1.592;2023-07-09T07:00:44;100895.59;;;16.82;58.88
59545;BME280;45368;55.002;-1.592;2023-07-09T07:03:12;100888.04;;;16.89;57.14
59545;BME280;45368;55.002;-1.592;2023-07-09T07:05:43;100878.84;;;16.86;57.83
59545;BME280;45368;55.002;-1.592;2023-07-09T07:08:13;100879.62;;;17.08;56.94
59545;BME280;45368;55.002;-1.592;2023-07-09T07:10:40;100886.68;;;17.01;58.10
59545;BME280;45368;55.002;-1.592;2023-07-09T07:13:08;100900.71;;;16.51;59.05
59545;BME280;45368;55.002;-1.592;2023-07-09T07:15:37;100912.49;;;17.22;57.14
59545;BME280;45368;55.002;-1.592;2023-07-09T07:18:06;100910.07;;;16.84;58.57
59545;BME280;45368;55.002;-1.592;2023-07-09T07:20:34;100907.90;;;16.60;58.50
59545;BME280;45368;55.002;-1.592;2023-07-09T07:23:01;100907.55;;;18.26;55.37
59545;BME280;45368;55.002;-1.592;2023-07-09T07:25:28;100904.54;;;17.74;56.38
59545;BME280;45368;55.002;-1.592;2023-07-09T07:27:56;100896.49;;;18.01;56.12
59545;BME280;45368;55.002;-1.592;2023-07-09T07:30:24;100894.92;;;17.96;55.60
59545;BME280;45368;55.002;-1.592;2023-07-09T07:32:51;100888.70;;;17.47;55.85
59545;BME280;45368;55.002;-1.592;2023-07-09T07:35:19;100874.67;;;17.75;54.72
59545;BME280;45368;55.002;-1.592;2023-07-09T07:37:47;100867.00;;;17.00;56.83
59545;BME280;45368;55.002;-1.592;2023-07-09T07:40:14;100872.81;;;17.97;55.30
59545;BME280;45368;55.002;-1.592;2023-07-09T07:42:42;100886.15;;;18.05;56.52
59545;BME280;45368;55.002;-1.592;2023-07-09T07:45:10;100896.21;;;18.19;54.47
59545;BME280;45368;55.002;-1.592;2023-07-09T07:47:37;100906.73;;;17.39;55.31
59545;BME280;45368;55.002;-1.592;2023-07-09T07:50:06;100905.07;;;17.29;55.42
59545;BME280;45368;55.002;-1.592;2023-07-09T07:52:34;100907.03;;;17.98;55.14
59545;BME280;45368;55.002;-1.592;2023-07-09T07:55:02;100906.44;;;17.53;56.04
59545;BME280;45368;55.002;-1.592;2023-07-09T07:57:29;100901.58;;;18.32;54.08
59545;BME280;45368;55.002;-1.592;2023-07-09T07:59:59;100908.40;;;17.38;56.34
59545;BME280;45368;55.002;-1.592;2023-07-09T08:02:26;100910.89;;;18.79;53.48
59545;BME280;45368;55.002;-1.592;2023-07-09T08:04:59;100921.01;;;18.41;52.37
59545;BME280;45368;55.002;-1.592;2023-07-09T08:07:26;100922.42;;;18.13;52.99
59545;BME280;45368;55.002;-1.592;2023-07-09T08:09:53;100918.85;;;18.27;53.96
59545;BME280;45368;55.002;-1.592;2023-07-09T08:12:21;100920.60;;;18.50;52.39
59545;BME280;45368;55.002;-1.592;2023-07-09T08:14:49;100922.44;;;18.70;52.61
59545;BME280;45368;55.002;-1.592;2023-07-09T08:17:16;100923.83;;;18.55;53.02
59545;BME280;45368;55.002;-1.592;2023-07-09T08:19:45;100920.52;;;18.51;53.21
59545;BME280;45368;55.002;-1.592;2023-07-09T08:22:12;100916.86;;;19.19;52.15
59545;BME280;45368;55.002;-1.592;2023-07-09T08:24:40;100914.30;;;19.33;51.26
59545;BME280;45368;55.002;-1.592;2023-07-09T08:27:08;100908.30;;;19.44;50.15
59545;BME280;45368;55.002;-1.592;2023-07-09T08:29:36;100913.09;;;19.44;50.06
59545;BME280;45368;55.002;-1.592;2023-07-09T08:32:05;100921.47;;;19.49;50.23
59545;BME280;45368;55.002;-1.592;2023-07-09T08:34:32;100921.95;;;19.36;51.39
59545;BME280;45368;55.002;-1.592;2023-07-09T08:37:02;100920.47;;;18.90;52.55
59545;BME280;45368;55.002;-1.592;2023-07-09T08:39:30;100920.22;;;19.34;50.24
59545;BME280;45368;55.002;-1.592;2023-07-09T08:42:02;100930.32;;;19.47;50.51
59545;BME280;45368;55.002;-1.592;2023-07-09T08:44:42;100935.57;;;19.25;50.97
59545;BME280;45368;55.002;-1.592;2023-07-09T08:47:18;100938.53;;;18.57;54.14
59545;BME280;45368;55.002;-1.592;2023-07-09T08:49:55;100937.85;;;18.64;52.31
59545;BME280;45368;55.002;-1.592;2023-07-09T08:52:40;100936.17;;;18.85;53.14
59545;BME280;45368;55.002;-1.592;2023-07-09T08:55:11;100938.28;;;18.99;52.58
59545;BME280;45368;55.002;-1.592;2023-07-09T08:57:41;100934.93;;;19.72;49.90
59545;BME280;45368;55.002;-1.592;2023-07-09T09:00:15;100930.04;;;19.72;50.69
59545;BME280;45368;55.002;-1.592;2023-07-09T09:02:46;100929.68;;;19.05;51.43
59545;BME280;45368;55.002;-1.592;2023-07-09T09:05:19;100929.99;;;19.22;49.98
59545;BME280;45368;55.002;-1.592;2023-07-09T09:07:51;100922.19;;;20.04;50.35
59545;BME280;45368;55.002;-1.592;2023-07-09T09:10:32;100926.39;;;19.21;50.91
59545;BME280;45368;55.002;-1.592;2023-07-09T09:13:07;100925.08;;;18.94;52.53
59545;BME280;45368;55.002;-1.592;2023-07-09T09:15:37;100920.10;;;20.05;49.88
59545;BME280;45368;55.002;-1.592;2023-07-09T09:18:19;100915.27;;;19.67;49.39
59545;BME280;45368;55.002;-1.592;2023-07-09T09:20:54;100906.31;;;20.32;48.75
59545;BME280;45368;55.002;-1.592;2023-07-09T09:23:22;100914.19;;;20.48;46.28
59545;BME280;45368;55.002;-1.592;2023-07-09T09:25:53;100925.15;;;19.58;48.23
59545;BME280;45368;55.002;-1.592;2023-07-09T09:28:23;100932.39;;;19.35;48.11
59545;BME280;45368;55.002;-1.592;2023-07-09T09:30:50;100939.33;;;19.68;49.16
59545;BME280;45368;55.002;-1.592;2023-07-09T09:33:18;100941.81;;;19.33;48.20
59545;BME280;45368;55.002;-1.592;2023-07-09T09:35:46;100943.70;;;18.83;48.72
59545;BME280;45368;55.002;-1.592;2023-07-09T09:38:17;100948.36;;;19.06;49.19
59545;BME280;45368;55.002;-1.592;2023-07-09T09:40:47;100954.76;;;17.98;48.63
59545;BME280;45368;55.002;-1.592;2023-07-09T09:43:17;100954.55;;;18.69;48.34
59545;BME280;45368;55.002;-1.592;2023-07-09T09:45:46;100958.39;;;18.66;47.77
59545;BME280;45368;55.002;-1.592;2023-07-09T09:48:17;100962.98;;;18.84;47.92
59545;BME280;45368;55.002;-1.592;2023-07-09T09:50:46;100969.15;;;19.12;47.44
59545;BME280;45368;55.002;-1.592;2023-07-09T09:53:20;100968.58;;;19.34;46.46
59545;BME280;45368;55.002;-1.592;2023-07-09T09:55:48;100971.20;;;19.50;47.46
59545;BME280;45368;55.002;-1.592;2023-07-09T09:58:17;100969.85;;;19.11;47.40
59545;BME280;45368;55.002;-1.592;2023-07-09T10:00:50;100959.56;;;19.98;46.01
59545;BME280;45368;55.002;-1.592;2023-07-09T10:03:18;100966.62;;;19.45;46.10
59545;BME280;45368;55.002;-1.592;2023-07-09T10:05:52;100962.37;;;19.81;47.44
59545;BME280;45368;55.002;-1.592;2023-07-09T10:08:30;100959.17;;;19.44;47.20
59545;BME280;45368;55.002;-1.592;2023-07-09T10:11:11;100960.72;;;19.08;48.31
59545;BME280;45368;55.002;-1.592;2023-07-09T10:13:42;100958.96;;;19.44;47.57
59545;BME280;45368;55.002;-1.592;2023-07-09T10:16:15;100957.56;;;20.29;46.37
59545;BME280;45368;55.002;-1.592;2023-07-09T10:18:52;100958.59;;;20.22;45.67
59545;BME280;45368;55.002;-1.592;2023-07-09T10:21:25;100961.37;;;19.54;49.17
59545;BME280;45368;55.002;-1.592;2023-07-09T10:24:04;100962.41;;;19.89;46.96
59545;BME280;45368;55.002;-1.592;2023-07-09T10:26:40;100962.14;;;20.10;46.32
59545;BME280;45368;55.002;-1.592;2023-07-09T10:29:56;100962.06;;;20.45;46.09
59545;BME280;45368;55.002;-1.592;2023-07-09T10:32:37;100958.46;;;20.33;45.21
59545;BME280;45368;55.002;-1.592;2023-07-09T10:35:18;100956.49;;;20.30;44.84
59545;BME280;45368;55.002;-1.592;2023-07-09T10:38:00;100953.51;;;19.03;48.19
59545;BME280;45368;55.002;-1.592;2023-07-09T10:40:33;100953.92;;;19.28;47.82
59545;BME280;45368;55.002;-1.592;2023-07-09T10:43:04;100945.35;;;20.38;46.39
59545;BME280;45368;55.002;-1.592;2023-07-09T10:45:34;100938.68;;;19.70;47.02
59545;BME280;45368;55.002;-1.592;2023-07-09T10:48:12;100929.91;;;20.53;45.70
59545;BME280;45368;55.002;-1.592;2023-07-09T10:50:43;100934.19;;;20.79;44.55
59545;BME280;45368;55.002;-1.592;2023-07-09T10:53:20;100937.87;;;20.89;44.94
59545;BME280;45368;55.002;-1.592;2023-07-09T10:55:55;100945.26;;;21.38;43.83
59545;BME280;45368;55.002;-1.592;2023-07-09T10:58:33;100952.09;;;21.17;44.61
59545;BME280;45368;55.002;-1.592;2023-07-09T11:01:02;100948.14;;;21.19;44.07
59545;BME280;45368;55.002;-1.592;2023-07-09T11:03:38;100949.35;;;21.15;43.35
59545;BME280;45368;55.002;-1.592;2023-07-09T11:06:16;100957.68;;;19.99;46.38
59545;BME280;45368;55.002;-1.592;2023-07-09T11:08:47;100957.87;;;20.14;47.44
59545;BME280;45368;55.002;-1.592;2023-07-09T11:11:24;100965.18;;;19.84;47.58
59545;BME280;45368;55.002;-1.592;2023-07-09T11:13:54;100958.87;;;20.61;45.98
59545;BME280;45368;55.002;-1.592;2023-07-09T11:16:28;100952.76;;;21.19;43.90
59545;BME280;45368;55.002;-1.592;2023-07-09T11:18:59;100950.10;;;21.55;43.52
59545;BME280;45368;55.002;-1.592;2023-07-09T11:21:28;100937.75;;;22.25;42.45
59545;BME280;45368;55.002;-1.592;2023-07-09T11:23:57;100938.71;;;22.07;43.03
59545;BME280;45368;55.002;-1.592;2023-07-09T11:26:27;100940.55;;;22.11;42.47
59545;BME280;45368;55.002;-1.592;2023-07-09T11:29:09;100938.20;;;22.11;42.87
59545;BME280;45368;55.002;-1.592;2023-07-09T11:31:38;100943.81;;;22.44;43.55
59545;BME280;45368;55.002;-1.592;2023-07-09T11:34:09;100949.06;;;23.55;41.40
59545;BME280;45368;55.002;-1.592;2023-07-09T11:36:48;100945.81;;;25.50;37.36
59545;BME280;45368;55.002;-1.592;2023-07-09T11:39:21;100945.56;;;24.13;39.48
59545;BME280;45368;55.002;-1.592;2023-07-09T11:41:49;100934.06;;;25.01;38.37
59545;BME280;45368;55.002;-1.592;2023-07-09T11:44:19;100949.16;;;24.09;37.82
59545;BME280;45368;55.002;-1.592;2023-07-09T11:46:54;100957.33;;;23.18;38.23
59545;BME280;45368;55.002;-1.592;2023-07-09T11:49:24;100948.61;;;22.57;40.15
59545;BME280;45368;55.002;-1.592;2023-07-09T11:51:57;100949.07;;;21.53;42.70
59545;BME280;45368;55.002;-1.592;2023-07-09T11:54:26;100955.11;;;21.38;42.57
59545;BME280;45368;55.002;-1.592;2023-07-09T11:56:56;100960.07;;;21.50;43.39
59545;BME280;45368;55.002;-1.592;2023-07-09T11:59:23;100963.13;;;20.98;42.58
59545;BME280;45368;55.002;-1.592;2023-07-09T12:01:57;100956.04;;;21.20;42.63
59545;BME280;45368;55.002;-1.592;2023-07-09T12:04:32;100960.04;;;20.78;42.36
59545;BME280;45368;55.002;-1.592;2023-07-09T12:07:01;100961.80;;;21.57;41.66
59545;BME280;45368;55.002;-1.592;2023-07-09T12:09:32;100958.18;;;21.19;41.81
59545;BME280;45368;55.002;-1.592;2023-07-09T12:11:59;100954.40;;;22.08;41.24
59545;BME280;45368;55.002;-1.592;2023-07-09T12:14:27;100953.91;;;21.15;42.35
59545;BME280;45368;55.002;-1.592;2023-07-09T12:16:55;100956.96;;;20.71;42.40
59545;BME280;45368;55.002;-1.592;2023-07-09T12:19:24;100955.31;;;21.26;43.06
59545;BME280;45368;55.002;-1.592;2023-07-09T12:21:55;100951.20;;;22.45;40.84
59545;BME280;45368;55.002;-1.592;2023-07-09T12:24:26;100947.27;;;21.88;41.78
59545;BME280;45368;55.002;-1.592;2023-07-09T12:26:55;100946.67;;;22.79;39.47
59545;BME280;45368;55.002;-1.592;2023-07-09T12:29:24;100944.22;;;22.70;39.19
59545;BME280;45368;55.002;-1.592;2023-07-09T12:31:52;100938.32;;;22.58;39.41
59545;BME280;45368;55.002;-1.592;2023-07-09T12:34:20;100938.45;;;22.28;39.71
59545;BME280;45368;55.002;-1.592;2023-07-09T12:36:49;100936.07;;;23.10;39.26
59545;BME280;45368;55.002;-1.592;2023-07-09T12:39:25;100934.67;;;22.49;41.61
59545;BME280;45368;55.002;-1.592;2023-07-09T12:41:56;100930.18;;;22.77;40.17
59545;BME280;45368;55.002;-1.592;2023-07-09T12:44:24;100925.58;;;23.13;39.58
59545;BME280;45368;55.002;-1.592;2023-07-09T12:46:53;100927.23;;;22.46;41.22
59545;BME280;45368;55.002;-1.592;2023-07-09T12:49:23;100925.79;;;23.11;40.13
59545;BME280;45368;55.002;-1.592;2023-07-09T12:51:54;100915.11;;;22.80;38.46
59545;BME280;45368;55.002;-1.592;2023-07-09T12:54:21;100912.58;;;22.93;36.75